Hlavní strana
METAR-TAF:

METAR-TAF

Letiště :

Vardø, Norsko

zeměpisná šířka: 70-21N, zeměpisná délka: 031-03E, výška: 12 m

Aktuální stav počasí

Zpráva byla vytvořena před 4 hodinami a 59 minutami, v 10:50 UTC
Jihojihovýchodní vítr 17 kt
Teplota 9°C
Vlhkost vzduchu 81%
Tlak 1004 hPa
Viditelnost 10 km a více
Oblačno až skoro zataženo ve výšce 2800 ft

METAR: ENSS 241050Z 15017KT 9999 BKN028 09/06 Q1004 RMK WIND 500FT 15016KT

Čas: 17:49 (15:49 UTC)


TAF: chybějící

Stav a předpovědi počasí z více než 4 000 letišť (zprávy METAR a TAF).

Červené a žluté tečky na mapě představují dostupné meteorologické stanice.

Když kurzor umístíte na tečku, zobrazí se název stanice.

Pak kliknutím zobrazíte stav a předpověď počasí.

Chcete-li změnit mapu, kliknutím na zelené tlačítko se znaménkem +mapu přiblížíte, kliknutím na zelené tlačítko se znaménkem – mapu oddálíte a kliknutím na zelené šipky přejdete na sousední mapy.


METAR-TAF: